Terminal Aerodrome Forecast
Issued by NWS

Home | Current Version | Previous Version | Text Only | Print | Product List | Glossary On
Versions: 1 2 3 4 5 6 7 8 9 10 11 12 13 14 15 16 17 18 19 20 21
000
FTUS44 KMAF 202300
TAFHOB
TAF
KHOB 202334Z 2100/2124 20006KT P6SM FEW200
     FM211000 23004KT 5SM BR OVC010
      TEMPO 2110/2114 1/4SM FG OVC001
     FM211500 24007KT P6SM SCT020
     FM211800 25014G22KT P6SM FEW200=

USA.gov is the U.S. government's official web portal to all federal, state and local government web resources and services.